sensor_id;sensor_type;location;lat;lon;timestamp;P1;durP1;ratioP1;P2;durP2;ratioP2
75456;SDS011;64036;48.266;14.192;2023-01-16T00:02:31;3.90;;;1.80;;
75456;SDS011;64036;48.266;14.192;2023-01-16T00:04:58;2.90;;;1.50;;
75456;SDS011;64036;48.266;14.192;2023-01-16T00:07:45;1.80;;;1.40;;
75456;SDS011;64036;48.266;14.192;2023-01-16T00:10:14;4.40;;;1.80;;
75456;SDS011;64036;48.266;14.192;2023-01-16T00:15:52;4.80;;;2.30;;
75456;SDS011;64036;48.266;14.192;2023-01-16T00:18:54;5.80;;;2.40;;
75456;SDS011;64036;48.266;14.192;2023-01-16T00:21:44;6.80;;;2.90;;
75456;SDS011;64036;48.266;14.192;2023-01-16T00:24:35;9.80;;;2.90;;
75456;SDS011;64036;48.266;14.192;2023-01-16T00:32:44;4.70;;;2.00;;
75456;SDS011;64036;48.266;14.192;2023-01-16T00:35:22;2.80;;;1.40;;
75456;SDS011;64036;48.266;14.192;2023-01-16T00:37:52;1.90;;;1.50;;
75456;SDS011;64036;48.266;14.192;2023-01-16T00:40:18;2.20;;;1.60;;
75456;SDS011;64036;48.266;14.192;2023-01-16T00:42:44;2.30;;;1.50;;
75456;SDS011;64036;48.266;14.192;2023-01-16T00:45:13;4.30;;;1.70;;
75456;SDS011;64036;48.266;14.192;2023-01-16T00:50:18;2.10;;;1.30;;
75456;SDS011;64036;48.266;14.192;2023-01-16T00:52:57;1.40;;;1.20;;
75456;SDS011;64036;48.266;14.192;2023-01-16T00:55:47;2.60;;;1.50;;
75456;SDS011;64036;48.266;14.192;2023-01-16T00:58:44;1.50;;;1.30;;
75456;SDS011;64036;48.266;14.192;2023-01-16T01:01:11;4.20;;;1.70;;
75456;SDS011;64036;48.266;14.192;2023-01-16T01:03:37;2.50;;;1.60;;
75456;SDS011;64036;48.266;14.192;2023-01-16T01:06:15;2.30;;;1.40;;
75456;SDS011;64036;48.266;14.192;2023-01-16T01:09:12;2.90;;;1.60;;
75456;SDS011;64036;48.266;14.192;2023-01-16T01:11:51;8.00;;;3.50;;
75456;SDS011;64036;48.266;14.192;2023-01-16T01:14:27;4.40;;;2.20;;
75456;SDS011;64036;48.266;14.192;2023-01-16T01:17:02;2.60;;;1.60;;
75456;SDS011;64036;48.266;14.192;2023-01-16T01:19:28;2.90;;;1.60;;
75456;SDS011;64036;48.266;14.192;2023-01-16T01:22:17;2.50;;;1.60;;
75456;SDS011;64036;48.266;14.192;2023-01-16T01:24:58;3.50;;;1.80;;
75456;SDS011;64036;48.266;14.192;2023-01-16T01:27:48;12.40;;;4.30;;
75456;SDS011;64036;48.266;14.192;2023-01-16T01:30:19;14.40;;;5.50;;
75456;SDS011;64036;48.266;14.192;2023-01-16T01:33:05;11.10;;;4.70;;
75456;SDS011;64036;48.266;14.192;2023-01-16T01:35:59;5.00;;;2.20;;
75456;SDS011;64036;48.266;14.192;2023-01-16T01:38:28;3.80;;;2.00;;
75456;SDS011;64036;48.266;14.192;2023-01-16T01:41:10;6.20;;;2.20;;
75456;SDS011;64036;48.266;14.192;2023-01-16T01:51:30;2.50;;;1.70;;
75456;SDS011;64036;48.266;14.192;2023-01-16T01:57:19;4.30;;;1.50;;
75456;SDS011;64036;48.266;14.192;2023-01-16T02:00:27;2.50;;;1.50;;
75456;SDS011;64036;48.266;14.192;2023-01-16T02:03:04;3.90;;;1.80;;
75456;SDS011;64036;48.266;14.192;2023-01-16T02:05:37;3.60;;;1.70;;
75456;SDS011;64036;48.266;14.192;2023-01-16T02:08:20;3.30;;;1.60;;
75456;SDS011;64036;48.266;14.192;2023-01-16T02:10:55;3.20;;;1.60;;
75456;SDS011;64036;48.266;14.192;2023-01-16T02:13:43;2.40;;;1.70;;
75456;SDS011;64036;48.266;14.192;2023-01-16T02:16:23;1.70;;;1.30;;
75456;SDS011;64036;48.266;14.192;2023-01-16T02:19:46;2.00;;;1.40;;
75456;SDS011;64036;48.266;14.192;2023-01-16T02:26:38;4.60;;;1.50;;
75456;SDS011;64036;48.266;14.192;2023-01-16T02:39:06;1.90;;;1.60;;
75456;SDS011;64036;48.266;14.192;2023-01-16T02:42:28;2.40;;;1.60;;
75456;SDS011;64036;48.266;14.192;2023-01-16T02:49:09;3.10;;;1.90;;
75456;SDS011;64036;48.266;14.192;2023-01-16T02:52:32;3.20;;;1.70;;
75456;SDS011;64036;48.266;14.192;2023-01-16T02:55:42;2.30;;;1.40;;
75456;SDS011;64036;48.266;14.192;2023-01-16T02:58:09;2.90;;;1.50;;
75456;SDS011;64036;48.266;14.192;2023-01-16T03:01:06;2.20;;;1.40;;
75456;SDS011;64036;48.266;14.192;2023-01-16T03:14:19;1.70;;;1.30;;
75456;SDS011;64036;48.266;14.192;2023-01-16T03:23:54;3.40;;;1.40;;
75456;SDS011;64036;48.266;14.192;2023-01-16T03:26:48;1.90;;;1.40;;
75456;SDS011;64036;48.266;14.192;2023-01-16T03:29:52;2.00;;;1.40;;
75456;SDS011;64036;48.266;14.192;2023-01-16T03:36:19;1.20;;;1.10;;
75456;SDS011;64036;48.266;14.192;2023-01-16T03:38:51;4.10;;;1.90;;
75456;SDS011;64036;48.266;14.192;2023-01-16T03:41:22;3.60;;;1.60;;
75456;SDS011;64036;48.266;14.192;2023-01-16T03:46:34;3.00;;;1.80;;
75456;SDS011;64036;48.266;14.192;2023-01-16T03:49:48;1.50;;;1.40;;
75456;SDS011;64036;48.266;14.192;2023-01-16T03:52:45;3.70;;;2.10;;
75456;SDS011;64036;48.266;14.192;2023-01-16T03:58:58;6.00;;;2.70;;
75456;SDS011;64036;48.266;14.192;2023-01-16T04:01:56;7.00;;;3.20;;
75456;SDS011;64036;48.266;14.192;2023-01-16T04:08:17;5.70;;;3.30;;
75456;SDS011;64036;48.266;14.192;2023-01-16T04:11:23;5.50;;;3.00;;
75456;SDS011;64036;48.266;14.192;2023-01-16T04:13:55;5.70;;;3.60;;
75456;SDS011;64036;48.266;14.192;2023-01-16T04:17:06;9.10;;;4.50;;
75456;SDS011;64036;48.266;14.192;2023-01-16T04:19:41;7.60;;;3.50;;
75456;SDS011;64036;48.266;14.192;2023-01-16T04:22:07;6.80;;;4.20;;
75456;SDS011;64036;48.266;14.192;2023-01-16T04:24:38;5.20;;;2.90;;
75456;SDS011;64036;48.266;14.192;2023-01-16T04:27:20;9.30;;;3.80;;
75456;SDS011;64036;48.266;14.192;2023-01-16T04:29:48;5.70;;;3.60;;
75456;SDS011;64036;48.266;14.192;2023-01-16T04:32:32;8.90;;;4.30;;
75456;SDS011;64036;48.266;14.192;2023-01-16T04:35:21;7.80;;;3.80;;
75456;SDS011;64036;48.266;14.192;2023-01-16T04:40:40;9.90;;;5.50;;
75456;SDS011;64036;48.266;14.192;2023-01-16T04:43:06;10.80;;;5.50;;
75456;SDS011;64036;48.266;14.192;2023-01-16T04:45:35;9.60;;;5.70;;
75456;SDS011;64036;48.266;14.192;2023-01-16T04:48:24;10.70;;;5.70;;
75456;SDS011;64036;48.266;14.192;2023-01-16T04:51:00;10.50;;;5.70;;
75456;SDS011;64036;48.266;14.192;2023-01-16T04:53:39;10.60;;;5.80;;
75456;SDS011;64036;48.266;14.192;2023-01-16T04:56:17;8.80;;;5.00;;
75456;SDS011;64036;48.266;14.192;2023-01-16T04:58:44;7.40;;;4.50;;
75456;SDS011;64036;48.266;14.192;2023-01-16T05:01:27;8.20;;;4.20;;
75456;SDS011;64036;48.266;14.192;2023-01-16T05:04:09;8.60;;;4.90;;
75456;SDS011;64036;48.266;14.192;2023-01-16T05:06:35;9.00;;;4.20;;
75456;SDS011;64036;48.266;14.192;2023-01-16T05:09:44;7.90;;;4.20;;
75456;SDS011;64036;48.266;14.192;2023-01-16T05:12:54;7.90;;;4.20;;
75456;SDS011;64036;48.266;14.192;2023-01-16T05:15:47;8.00;;;4.80;;
75456;SDS011;64036;48.266;14.192;2023-01-16T05:21:39;9.20;;;4.50;;
75456;SDS011;64036;48.266;14.192;2023-01-16T05:24:19;6.70;;;4.00;;
75456;SDS011;64036;48.266;14.192;2023-01-16T05:26:47;5.90;;;3.50;;
75456;SDS011;64036;48.266;14.192;2023-01-16T05:29:16;7.30;;;4.20;;
75456;SDS011;64036;48.266;14.192;2023-01-16T05:31:42;7.10;;;4.00;;
75456;SDS011;64036;48.266;14.192;2023-01-16T05:34:11;6.30;;;3.60;;
75456;SDS011;64036;48.266;14.192;2023-01-16T05:36:57;7.60;;;4.00;;
75456;SDS011;64036;48.266;14.192;2023-01-16T05:39:34;6.40;;;3.40;;
75456;SDS011;64036;48.266;14.192;2023-01-16T05:42:12;6.20;;;3.60;;
75456;SDS011;64036;48.266;14.192;2023-01-16T05:45:07;7.60;;;3.40;;
75456;SDS011;64036;48.266;14.192;2023-01-16T05:48:04;6.50;;;3.70;;
75456;SDS011;64036;48.266;14.192;2023-01-16T05:50:33;5.70;;;3.30;;
75456;SDS011;64036;48.266;14.192;2023-01-16T05:53:06;6.60;;;3.50;;
75456;SDS011;64036;48.266;14.192;2023-01-16T05:55:41;6.00;;;3.20;;
75456;SDS011;64036;48.266;14.192;2023-01-16T05:58:12;6.20;;;3.90;;
75456;SDS011;64036;48.266;14.192;2023-01-16T06:00:39;6.00;;;3.60;;
75456;SDS011;64036;48.266;14.192;2023-01-16T06:03:10;6.50;;;3.60;;
75456;SDS011;64036;48.266;14.192;2023-01-16T06:05:47;8.10;;;3.40;;
75456;SDS011;64036;48.266;14.192;2023-01-16T06:11:30;6.20;;;3.30;;
75456;SDS011;64036;48.266;14.192;2023-01-16T06:20:27;6.00;;;3.30;;
75456;SDS011;64036;48.266;14.192;2023-01-16T06:22:58;6.90;;;3.50;;
75456;SDS011;64036;48.266;14.192;2023-01-16T06:25:26;6.70;;;3.80;;
75456;SDS011;64036;48.266;14.192;2023-01-16T06:28:49;8.40;;;4.20;;
75456;SDS011;64036;48.266;14.192;2023-01-16T06:35:36;7.40;;;4.10;;
75456;SDS011;64036;48.266;14.192;2023-01-16T06:45:57;6.00;;;3.30;;
75456;SDS011;64036;48.266;14.192;2023-01-16T06:48:39;5.60;;;3.20;;
75456;SDS011;64036;48.266;14.192;2023-01-16T06:51:32;5.70;;;3.00;;
75456;SDS011;64036;48.266;14.192;2023-01-16T06:54:43;6.70;;;3.70;;
75456;SDS011;64036;48.266;14.192;2023-01-16T06:57:21;5.90;;;3.50;;
75456;SDS011;64036;48.266;14.192;2023-01-16T07:00:11;6.80;;;3.30;;
75456;SDS011;64036;48.266;14.192;2023-01-16T07:02:36;6.00;;;3.20;;
75456;SDS011;64036;48.266;14.192;2023-01-16T07:09:12;5.80;;;3.30;;
75456;SDS011;64036;48.266;14.192;2023-01-16T07:15:01;6.50;;;3.20;;
75456;SDS011;64036;48.266;14.192;2023-01-16T07:21:21;6.60;;;3.00;;
75456;SDS011;64036;48.266;14.192;2023-01-16T07:24:25;6.50;;;3.30;;
75456;SDS011;64036;48.266;14.192;2023-01-16T07:31:42;5.70;;;3.20;;
75456;SDS011;64036;48.266;14.192;2023-01-16T07:34:32;7.90;;;3.20;;
75456;SDS011;64036;48.266;14.192;2023-01-16T07:40:31;6.60;;;3.20;;
75456;SDS011;64036;48.266;14.192;2023-01-16T07:42:57;7.70;;;3.40;;
75456;SDS011;64036;48.266;14.192;2023-01-16T07:45:30;8.00;;;3.70;;
75456;SDS011;64036;48.266;14.192;2023-01-16T07:47:58;5.40;;;3.10;;
75456;SDS011;64036;48.266;14.192;2023-01-16T07:50:26;5.80;;;3.00;;
75456;SDS011;64036;48.266;14.192;2023-01-16T07:52:52;7.70;;;3.20;;
75456;SDS011;64036;48.266;14.192;2023-01-16T07:55:18;6.20;;;2.90;;
75456;SDS011;64036;48.266;14.192;2023-01-16T07:57:44;5.70;;;2.60;;
75456;SDS011;64036;48.266;14.192;2023-01-16T08:00:11;5.00;;;2.40;;
75456;SDS011;64036;48.266;14.192;2023-01-16T08:02:38;4.30;;;2.40;;
75456;SDS011;64036;48.266;14.192;2023-01-16T08:05:04;5.60;;;2.50;;
75456;SDS011;64036;48.266;14.192;2023-01-16T08:07:30;6.10;;;2.40;;
75456;SDS011;64036;48.266;14.192;2023-01-16T08:09:56;5.30;;;2.30;;
75456;SDS011;64036;48.266;14.192;2023-01-16T08:12:21;5.80;;;2.30;;
75456;SDS011;64036;48.266;14.192;2023-01-16T08:14:47;4.10;;;2.40;;
75456;SDS011;64036;48.266;14.192;2023-01-16T08:17:12;3.90;;;1.90;;
75456;SDS011;64036;48.266;14.192;2023-01-16T08:19:38;4.00;;;2.00;;
75456;SDS011;64036;48.266;14.192;2023-01-16T08:22:04;4.10;;;2.00;;
75456;SDS011;64036;48.266;14.192;2023-01-16T08:24:29;5.20;;;2.10;;
75456;SDS011;64036;48.266;14.192;2023-01-16T08:26:56;4.20;;;2.00;;
75456;SDS011;64036;48.266;14.192;2023-01-16T08:29:23;4.30;;;2.00;;
75456;SDS011;64036;48.266;14.192;2023-01-16T08:31:49;4.00;;;2.10;;
75456;SDS011;64036;48.266;14.192;2023-01-16T08:34:16;5.60;;;2.10;;
75456;SDS011;64036;48.266;14.192;2023-01-16T08:36:41;4.70;;;2.20;;
75456;SDS011;64036;48.266;14.192;2023-01-16T08:39:10;4.10;;;2.30;;
75456;SDS011;64036;48.266;14.192;2023-01-16T08:41:37;4.50;;;2.10;;
75456;SDS011;64036;48.266;14.192;2023-01-16T08:44:22;4.20;;;2.20;;
75456;SDS011;64036;48.266;14.192;2023-01-16T08:47:17;4.90;;;2.30;;
75456;SDS011;64036;48.266;14.192;2023-01-16T08:50:04;4.90;;;2.00;;
75456;SDS011;64036;48.266;14.192;2023-01-16T08:52:48;4.50;;;2.10;;
75456;SDS011;64036;48.266;14.192;2023-01-16T08:55:14;5.20;;;2.10;;
75456;SDS011;64036;48.266;14.192;2023-01-16T08:57:39;6.40;;;2.50;;
75456;SDS011;64036;48.266;14.192;2023-01-16T09:00:06;6.50;;;2.20;;
75456;SDS011;64036;48.266;14.192;2023-01-16T09:02:32;5.80;;;2.50;;
75456;SDS011;64036;48.266;14.192;2023-01-16T09:05:01;5.00;;;2.10;;
75456;SDS011;64036;48.266;14.192;2023-01-16T09:07:27;4.30;;;1.80;;
75456;SDS011;64036;48.266;14.192;2023-01-16T09:09:54;2.80;;;1.60;;
75456;SDS011;64036;48.266;14.192;2023-01-16T09:12:19;3.30;;;1.60;;
75456;SDS011;64036;48.266;14.192;2023-01-16T09:15:04;3.20;;;1.50;;
75456;SDS011;64036;48.266;14.192;2023-01-16T09:17:31;2.60;;;1.50;;
75456;SDS011;64036;48.266;14.192;2023-01-16T09:19:56;3.20;;;1.50;;
75456;SDS011;64036;48.266;14.192;2023-01-16T09:22:22;2.30;;;1.20;;
75456;SDS011;64036;48.266;14.192;2023-01-16T09:24:48;3.20;;;1.30;;
75456;SDS011;64036;48.266;14.192;2023-01-16T09:27:14;1.40;;;1.10;;
75456;SDS011;64036;48.266;14.192;2023-01-16T09:29:41;1.00;;;0.90;;
75456;SDS011;64036;48.266;14.192;2023-01-16T09:32:07;2.00;;;1.10;;
75456;SDS011;64036;48.266;14.192;2023-01-16T09:34:35;2.40;;;1.10;;
75456;SDS011;64036;48.266;14.192;2023-01-16T09:37:01;1.70;;;1.00;;
75456;SDS011;64036;48.266;14.192;2023-01-16T09:39:27;1.20;;;1.00;;
75456;SDS011;64036;48.266;14.192;2023-01-16T09:44:44;1.30;;;1.10;;
75456;SDS011;64036;48.266;14.192;2023-01-16T09:47:11;1.10;;;0.90;;
75456;SDS011;64036;48.266;14.192;2023-01-16T09:49:49;1.80;;;1.00;;
75456;SDS011;64036;48.266;14.192;2023-01-16T09:52:24;1.20;;;0.90;;
75456;SDS011;64036;48.266;14.192;2023-01-16T09:55:40;1.10;;;1.00;;
75456;SDS011;64036;48.266;14.192;2023-01-16T09:58:27;1.90;;;1.10;;
75456;SDS011;64036;48.266;14.192;2023-01-16T10:01:25;1.20;;;1.00;;
75456;SDS011;64036;48.266;14.192;2023-01-16T10:04:19;1.70;;;1.10;;
75456;SDS011;64036;48.266;14.192;2023-01-16T10:19:02;1.50;;;1.10;;
75456;SDS011;64036;48.266;14.192;2023-01-16T10:21:52;1.40;;;1.10;;
75456;SDS011;64036;48.266;14.192;2023-01-16T10:27:41;5.60;;;1.20;;
75456;SDS011;64036;48.266;14.192;2023-01-16T10:30:27;1.20;;;1.00;;
75456;SDS011;64036;48.266;14.192;2023-01-16T10:33:22;0.80;;;0.80;;
75456;SDS011;64036;48.266;14.192;2023-01-16T10:35:55;3.20;;;1.20;;
75456;SDS011;64036;48.266;14.192;2023-01-16T10:38:26;2.10;;;1.00;;
75456;SDS011;64036;48.266;14.192;2023-01-16T10:41:22;1.50;;;1.00;;
75456;SDS011;64036;48.266;14.192;2023-01-16T10:44:35;2.00;;;1.20;;
75456;SDS011;64036;48.266;14.192;2023-01-16T10:47:25;2.30;;;1.30;;
75456;SDS011;64036;48.266;14.192;2023-01-16T10:50:14;3.00;;;1.30;;
75456;SDS011;64036;48.266;14.192;2023-01-16T10:52:40;2.10;;;1.30;;
75456;SDS011;64036;48.266;14.192;2023-01-16T10:55:07;3.50;;;1.30;;
75456;SDS011;64036;48.266;14.192;2023-01-16T10:57:34;2.60;;;1.20;;
75456;SDS011;64036;48.266;14.192;2023-01-16T11:00:14;1.40;;;1.00;;
75456;SDS011;64036;48.266;14.192;2023-01-16T11:02:46;2.60;;;1.10;;
75456;SDS011;64036;48.266;14.192;2023-01-16T11:05:33;1.30;;;1.00;;
75456;SDS011;64036;48.266;14.192;2023-01-16T11:08:16;1.30;;;1.00;;
75456;SDS011;64036;48.266;14.192;2023-01-16T11:10:47;0.90;;;0.90;;
75456;SDS011;64036;48.266;14.192;2023-01-16T11:13:32;0.90;;;0.80;;
75456;SDS011;64036;48.266;14.192;2023-01-16T11:16:22;1.40;;;1.00;;
75456;SDS011;64036;48.266;14.192;2023-01-16T11:19:17;0.90;;;0.80;;
75456;SDS011;64036;48.266;14.192;2023-01-16T11:21:58;0.90;;;0.80;;
75456;SDS011;64036;48.266;14.192;2023-01-16T11:24:35;1.60;;;0.80;;
75456;SDS011;64036;48.266;14.192;2023-01-16T11:27:06;1.20;;;0.90;;
75456;SDS011;64036;48.266;14.192;2023-01-16T11:29:39;0.80;;;0.80;;
75456;SDS011;64036;48.266;14.192;2023-01-16T11:32:11;0.80;;;0.80;;
75456;SDS011;64036;48.266;14.192;2023-01-16T11:34:53;0.90;;;0.90;;
75456;SDS011;64036;48.266;14.192;2023-01-16T11:37:33;1.10;;;1.00;;
75456;SDS011;64036;48.266;14.192;2023-01-16T11:40:04;0.80;;;0.80;;
75456;SDS011;64036;48.266;14.192;2023-01-16T11:42:33;1.00;;;0.90;;
75456;SDS011;64036;48.266;14.192;2023-01-16T11:45:22;3.10;;;0.90;;
75456;SDS011;64036;48.266;14.192;2023-01-16T11:48:11;1.00;;;0.90;;
75456;SDS011;64036;48.266;14.192;2023-01-16T11:50:56;1.30;;;0.90;;
75456;SDS011;64036;48.266;14.192;2023-01-16T11:53:33;1.00;;;0.90;;
75456;SDS011;64036;48.266;14.192;2023-01-16T12:02:49;0.70;;;0.70;;
75456;SDS011;64036;48.266;14.192;2023-01-16T12:06:00;0.90;;;0.80;;
75456;SDS011;64036;48.266;14.192;2023-01-16T12:09:09;0.70;;;0.70;;
75456;SDS011;64036;48.266;14.192;2023-01-16T12:12:10;0.80;;;0.80;;
75456;SDS011;64036;48.266;14.192;2023-01-16T12:15:03;1.00;;;0.80;;
75456;SDS011;64036;48.266;14.192;2023-01-16T12:17:58;0.80;;;0.80;;
75456;SDS011;64036;48.266;14.192;2023-01-16T12:26:28;1.30;;;0.70;;
75456;SDS011;64036;48.266;14.192;2023-01-16T12:52:11;1.10;;;0.70;;
75456;SDS011;64036;48.266;14.192;2023-01-16T12:58:19;0.60;;;0.60;;
75456;SDS011;64036;48.266;14.192;2023-01-16T13:01:08;0.50;;;0.50;;
75456;SDS011;64036;48.266;14.192;2023-01-16T13:06:59;0.90;;;0.70;;
75456;SDS011;64036;48.266;14.192;2023-01-16T13:09:46;0.70;;;0.70;;
75456;SDS011;64036;48.266;14.192;2023-01-16T13:12:25;0.70;;;0.60;;
75456;SDS011;64036;48.266;14.192;2023-01-16T13:15:15;1.80;;;0.80;;
75456;SDS011;64036;48.266;14.192;2023-01-16T13:18:01;0.50;;;0.50;;
75456;SDS011;64036;48.266;14.192;2023-01-16T13:20:45;0.80;;;0.70;;
75456;SDS011;64036;48.266;14.192;2023-01-16T13:23:31;1.50;;;0.70;;
75456;SDS011;64036;48.266;14.192;2023-01-16T13:26:02;1.30;;;0.70;;
75456;SDS011;64036;48.266;14.192;2023-01-16T13:28:55;0.80;;;0.80;;
75456;SDS011;64036;48.266;14.192;2023-01-16T13:32:03;0.80;;;0.80;;
75456;SDS011;64036;48.266;14.192;2023-01-16T13:34:51;1.10;;;0.90;;
75456;SDS011;64036;48.266;14.192;2023-01-16T13:38:02;1.60;;;0.80;;
75456;SDS011;64036;48.266;14.192;2023-01-16T13:44:21;1.30;;;0.60;;
75456;SDS011;64036;48.266;14.192;2023-01-16T13:47:21;0.60;;;0.60;;
75456;SDS011;64036;48.266;14.192;2023-01-16T13:50:00;0.60;;;0.60;;
75456;SDS011;64036;48.266;14.192;2023-01-16T13:52:30;0.60;;;0.60;;
75456;SDS011;64036;48.266;14.192;2023-01-16T13:55:01;0.70;;;0.70;;
75456;SDS011;64036;48.266;14.192;2023-01-16T13:57:45;0.70;;;0.60;;
75456;SDS011;64036;48.266;14.192;2023-01-16T14:00:13;1.00;;;0.70;;
75456;SDS011;64036;48.266;14.192;2023-01-16T14:02:44;0.70;;;0.70;;
75456;SDS011;64036;48.266;14.192;2023-01-16T14:05:24;1.60;;;0.80;;
75456;SDS011;64036;48.266;14.192;2023-01-16T14:08:25;0.60;;;0.60;;
75456;SDS011;64036;48.266;14.192;2023-01-16T14:14:31;0.60;;;0.60;;
75456;SDS011;64036;48.266;14.192;2023-01-16T14:23:21;0.70;;;0.70;;
75456;SDS011;64036;48.266;14.192;2023-01-16T14:26:09;2.00;;;0.90;;
75456;SDS011;64036;48.266;14.192;2023-01-16T14:28:41;0.70;;;0.70;;
75456;SDS011;64036;48.266;14.192;2023-01-16T14:31:27;2.00;;;0.90;;
75456;SDS011;64036;48.266;14.192;2023-01-16T14:34:01;1.50;;;0.90;;
75456;SDS011;64036;48.266;14.192;2023-01-16T14:36:31;0.70;;;0.70;;
75456;SDS011;64036;48.266;14.192;2023-01-16T14:38:58;1.00;;;0.90;;
75456;SDS011;64036;48.266;14.192;2023-01-16T14:41:28;0.70;;;0.70;;
75456;SDS011;64036;48.266;14.192;2023-01-16T14:44:21;1.80;;;1.00;;
75456;SDS011;64036;48.266;14.192;2023-01-16T14:47:31;3.40;;;1.30;;
75456;SDS011;64036;48.266;14.192;2023-01-16T14:50:43;3.80;;;1.40;;
75456;SDS011;64036;48.266;14.192;2023-01-16T14:57:18;3.80;;;1.60;;
75456;SDS011;64036;48.266;14.192;2023-01-16T15:00:18;4.60;;;1.70;;
75456;SDS011;64036;48.266;14.192;2023-01-16T15:02:57;4.90;;;1.90;;
75456;SDS011;64036;48.266;14.192;2023-01-16T15:05:34;6.50;;;2.10;;
75456;SDS011;64036;48.266;14.192;2023-01-16T15:08:26;4.50;;;1.40;;
75456;SDS011;64036;48.266;14.192;2023-01-16T15:10:56;2.80;;;1.40;;
75456;SDS011;64036;48.266;14.192;2023-01-16T15:13:30;3.20;;;1.40;;
75456;SDS011;64036;48.266;14.192;2023-01-16T15:16:18;3.40;;;1.50;;
75456;SDS011;64036;48.266;14.192;2023-01-16T15:19:19;2.50;;;1.20;;
75456;SDS011;64036;48.266;14.192;2023-01-16T15:22:16;1.70;;;1.10;;
75456;SDS011;64036;48.266;14.192;2023-01-16T15:25:03;5.20;;;1.50;;
75456;SDS011;64036;48.266;14.192;2023-01-16T15:28:10;2.50;;;1.30;;
75456;SDS011;64036;48.266;14.192;2023-01-16T15:30:48;3.60;;;1.50;;
75456;SDS011;64036;48.266;14.192;2023-01-16T15:33:28;3.20;;;1.60;;
75456;SDS011;64036;48.266;14.192;2023-01-16T15:36:23;2.10;;;1.40;;
75456;SDS011;64036;48.266;14.192;2023-01-16T15:42:54;2.80;;;1.30;;
75456;SDS011;64036;48.266;14.192;2023-01-16T15:46:29;2.10;;;1.20;;
75456;SDS011;64036;48.266;14.192;2023-01-16T15:52:43;3.80;;;1.50;;
75456;SDS011;64036;48.266;14.192;2023-01-16T15:55:21;4.00;;;1.50;;
75456;SDS011;64036;48.266;14.192;2023-01-16T15:58:18;2.40;;;1.40;;
75456;SDS011;64036;48.266;14.192;2023-01-16T16:01:44;1.70;;;1.10;;
75456;SDS011;64036;48.266;14.192;2023-01-16T16:03:55;3.50;;;1.40;;
75456;SDS011;64036;48.266;14.192;2023-01-16T16:06:34;3.00;;;1.50;;
75456;SDS011;64036;48.266;14.192;2023-01-16T16:09:04;2.50;;;1.40;;
75456;SDS011;64036;48.266;14.192;2023-01-16T16:11:31;1.70;;;1.20;;
75456;SDS011;64036;48.266;14.192;2023-01-16T16:15:02;4.80;;;1.60;;
75456;SDS011;64036;48.266;14.192;2023-01-16T16:21:07;1.90;;;1.30;;
75456;SDS011;64036;48.266;14.192;2023-01-16T16:23:37;2.90;;;1.50;;
75456;SDS011;64036;48.266;14.192;2023-01-16T16:26:09;5.40;;;1.50;;
75456;SDS011;64036;48.266;14.192;2023-01-16T16:28:38;1.70;;;1.20;;
75456;SDS011;64036;48.266;14.192;2023-01-16T16:31:24;1.60;;;1.20;;
75456;SDS011;64036;48.266;14.192;2023-01-16T16:34:13;5.40;;;1.90;;
75456;SDS011;64036;48.266;14.192;2023-01-16T16:36:45;2.60;;;1.40;;
75456;SDS011;64036;48.266;14.192;2023-01-16T16:43:02;6.60;;;1.60;;
75456;SDS011;64036;48.266;14.192;2023-01-16T16:53:10;2.70;;;1.50;;
75456;SDS011;64036;48.266;14.192;2023-01-16T17:10:35;1.40;;;1.10;;
75456;SDS011;64036;48.266;14.192;2023-01-16T17:15:45;1.40;;;1.00;;
75456;SDS011;64036;48.266;14.192;2023-01-16T17:18:56;2.30;;;1.20;;
75456;SDS011;64036;48.266;14.192;2023-01-16T17:21:33;1.00;;;1.00;;
75456;SDS011;64036;48.266;14.192;2023-01-16T17:24:01;1.70;;;1.10;;
75456;SDS011;64036;48.266;14.192;2023-01-16T17:26:48;3.50;;;1.20;;
75456;SDS011;64036;48.266;14.192;2023-01-16T17:29:14;1.50;;;1.10;;
75456;SDS011;64036;48.266;14.192;2023-01-16T17:31:44;1.40;;;1.00;;
75456;SDS011;64036;48.266;14.192;2023-01-16T17:34:14;1.90;;;1.20;;
75456;SDS011;64036;48.266;14.192;2023-01-16T17:36:41;2.00;;;1.20;;
75456;SDS011;64036;48.266;14.192;2023-01-16T17:39:08;1.20;;;1.10;;
75456;SDS011;64036;48.266;14.192;2023-01-16T17:41:35;2.10;;;0.90;;
75456;SDS011;64036;48.266;14.192;2023-01-16T17:44:32;1.70;;;1.30;;
75456;SDS011;64036;48.266;14.192;2023-01-16T17:47:22;1.70;;;1.10;;
75456;SDS011;64036;48.266;14.192;2023-01-16T17:50:05;1.20;;;1.10;;
75456;SDS011;64036;48.266;14.192;2023-01-16T17:55:22;1.50;;;1.20;;
75456;SDS011;64036;48.266;14.192;2023-01-16T17:58:06;1.30;;;1.10;;
75456;SDS011;64036;48.266;14.192;2023-01-16T18:00:32;1.40;;;1.00;;
75456;SDS011;64036;48.266;14.192;2023-01-16T18:02:59;2.10;;;1.40;;
75456;SDS011;64036;48.266;14.192;2023-01-16T18:05:46;2.00;;;1.20;;
75456;SDS011;64036;48.266;14.192;2023-01-16T18:08:21;3.80;;;1.50;;
75456;SDS011;64036;48.266;14.192;2023-01-16T18:10:49;2.90;;;1.50;;
75456;SDS011;64036;48.266;14.192;2023-01-16T18:13:22;1.40;;;1.20;;
75456;SDS011;64036;48.266;14.192;2023-01-16T18:16:06;1.10;;;1.00;;
75456;SDS011;64036;48.266;14.192;2023-01-16T18:18:57;1.60;;;1.10;;
75456;SDS011;64036;48.266;14.192;2023-01-16T18:24:38;2.00;;;1.30;;
75456;SDS011;64036;48.266;14.192;2023-01-16T18:27:10;1.50;;;1.10;;
75456;SDS011;64036;48.266;14.192;2023-01-16T18:29:38;1.60;;;1.40;;
75456;SDS011;64036;48.266;14.192;2023-01-16T18:32:17;1.70;;;1.30;;
75456;SDS011;64036;48.266;14.192;2023-01-16T18:35:07;1.90;;;1.50;;
75456;SDS011;64036;48.266;14.192;2023-01-16T18:37:35;2.60;;;1.50;;
75456;SDS011;64036;48.266;14.192;2023-01-16T18:40:03;3.60;;;1.70;;
75456;SDS011;64036;48.266;14.192;2023-01-16T18:42:49;2.60;;;1.70;;
75456;SDS011;64036;48.266;14.192;2023-01-16T18:45:34;3.00;;;1.80;;
75456;SDS011;64036;48.266;14.192;2023-01-16T18:48:18;2.80;;;1.80;;
75456;SDS011;64036;48.266;14.192;2023-01-16T18:51:09;3.40;;;1.90;;
75456;SDS011;64036;48.266;14.192;2023-01-16T18:53:58;3.80;;;1.90;;
75456;SDS011;64036;48.266;14.192;2023-01-16T18:56:46;4.70;;;1.60;;
75456;SDS011;64036;48.266;14.192;2023-01-16T18:59:56;3.60;;;1.70;;
75456;SDS011;64036;48.266;14.192;2023-01-16T19:02:50;2.30;;;1.50;;
75456;SDS011;64036;48.266;14.192;2023-01-16T19:05:20;3.30;;;1.60;;
75456;SDS011;64036;48.266;14.192;2023-01-16T19:07:56;2.40;;;1.50;;
75456;SDS011;64036;48.266;14.192;2023-01-16T19:10:52;3.00;;;1.50;;
75456;SDS011;64036;48.266;14.192;2023-01-16T19:13:24;3.10;;;1.60;;
75456;SDS011;64036;48.266;14.192;2023-01-16T19:16:04;2.20;;;1.60;;
75456;SDS011;64036;48.266;14.192;2023-01-16T19:18:51;4.90;;;1.80;;
75456;SDS011;64036;48.266;14.192;2023-01-16T19:21:17;3.80;;;1.90;;
75456;SDS011;64036;48.266;14.192;2023-01-16T19:23:43;2.70;;;1.80;;
75456;SDS011;64036;48.266;14.192;2023-01-16T19:26:12;2.90;;;1.70;;
75456;SDS011;64036;48.266;14.192;2023-01-16T19:28:40;3.70;;;1.90;;
75456;SDS011;64036;48.266;14.192;2023-01-16T19:31:08;3.30;;;1.90;;
75456;SDS011;64036;48.266;14.192;2023-01-16T19:36:36;2.70;;;1.70;;
75456;SDS011;64036;48.266;14.192;2023-01-16T19:39:08;3.30;;;1.80;;
75456;SDS011;64036;48.266;14.192;2023-01-16T19:41:38;2.70;;;1.80;;
75456;SDS011;64036;48.266;14.192;2023-01-16T19:47:23;2.70;;;1.60;;
75456;SDS011;64036;48.266;14.192;2023-01-16T19:49:48;3.30;;;1.80;;
75456;SDS011;64036;48.266;14.192;2023-01-16T19:52:17;3.10;;;2.00;;
75456;SDS011;64036;48.266;14.192;2023-01-16T19:54:43;3.50;;;1.90;;
75456;SDS011;64036;48.266;14.192;2023-01-16T19:57:09;2.00;;;1.60;;